createdAt,value
2018-08-17T00:01:54.220Z,100305.30
2018-08-17T00:04:24.906Z,100306.94
2018-08-17T00:06:55.777Z,100310.86
2018-08-17T00:09:27.389Z,100305.89
2018-08-17T00:11:58.360Z,100309.22
2018-08-17T00:14:29.099Z,100303.82
2018-08-17T00:16:58.957Z,100305.27
2018-08-17T00:19:29.934Z,100297.84
2018-08-17T00:22:00.753Z,100304.75
2018-08-17T00:24:32.137Z,100302.88
2018-08-17T00:27:03.048Z,100303.60
2018-08-17T00:29:34.285Z,100298.64
2018-08-17T00:32:04.363Z,100299.02
2018-08-17T00:34:35.044Z,100300.45
2018-08-17T00:37:05.896Z,100300.55
2018-08-17T00:39:36.754Z,100303.34
2018-08-17T00:42:08.268Z,100307.05
2018-08-17T00:44:38.976Z,100307.78
2018-08-17T00:47:10.176Z,100306.62
2018-08-17T00:49:40.923Z,100304.66
2018-08-17T00:52:11.829Z,100298.66
2018-08-17T00:54:43.065Z,100299.91
2018-08-17T00:57:14.071Z,100303.00
2018-08-17T00:59:44.835Z,100305.25
2018-08-17T01:02:15.757Z,100306.80
2018-08-17T01:04:47.025Z,100310.92
2018-08-17T01:07:18.010Z,100298.98
2018-08-17T01:09:48.916Z,100306.14
2018-08-17T01:12:19.906Z,100309.23
2018-08-17T01:14:50.907Z,100308.48
2018-08-17T01:17:22.008Z,100308.07
2018-08-17T01:19:56.297Z,100312.50
2018-08-17T01:22:26.165Z,100311.24
2018-08-17T01:24:56.062Z,100309.98
2018-08-17T01:27:25.913Z,100309.36
2018-08-17T01:29:56.772Z,100300.23
2018-08-17T01:32:28.554Z,100298.17
2018-08-17T01:34:59.265Z,100294.95
2018-08-17T01:37:29.941Z,100293.56
2018-08-17T01:40:00.800Z,100298.41
2018-08-17T01:42:31.685Z,100298.94
2018-08-17T01:45:03.181Z,100296.65
2018-08-17T01:47:35.025Z,100298.39
2018-08-17T01:50:05.092Z,100299.81
2018-08-17T01:52:35.886Z,100289.27
2018-08-17T01:55:08.822Z,100284.42
2018-08-17T01:57:38.660Z,100286.66
2018-08-17T02:00:11.695Z,100290.38
2018-08-17T02:02:42.675Z,100290.27
2018-08-17T02:05:12.840Z,100290.45
2018-08-17T02:07:42.633Z,100285.80
2018-08-17T02:10:13.673Z,100285.88
2018-08-17T02:12:44.024Z,100290.61
2018-08-17T02:15:14.962Z,100288.14
2018-08-17T02:17:45.781Z,100284.52
2018-08-17T02:20:16.993Z,100286.25
2018-08-17T02:22:52.124Z,100284.28
2018-08-17T02:25:22.210Z,100284.67
2018-08-17T02:27:52.068Z,100292.27
2018-08-17T02:30:21.858Z,100291.42
2018-08-17T02:32:51.780Z,100283.45
2018-08-17T02:35:23.045Z,100286.22
2018-08-17T02:37:54.037Z,100287.23
2018-08-17T02:40:25.133Z,100281.95
2018-08-17T02:42:56.139Z,100279.17
2018-08-17T02:45:26.964Z,100272.93
2018-08-17T02:47:57.892Z,100283.45
2018-08-17T02:50:28.757Z,100285.49
2018-08-17T02:52:59.755Z,100283.20
2018-08-17T02:55:31.275Z,100279.89
2018-08-17T02:58:02.064Z,100272.94
2018-08-17T03:00:32.934Z,100282.64
2018-08-17T03:03:04.036Z,100278.52
2018-08-17T03:05:34.893Z,100278.69
2018-08-17T03:08:05.886Z,100281.05
2018-08-17T03:10:36.766Z,100275.59
2018-08-17T03:13:08.506Z,100282.47
2018-08-17T03:15:39.045Z,100281.80
2018-08-17T03:18:10.939Z,100276.66
2018-08-17T03:20:42.373Z,100277.36
2018-08-17T03:23:12.751Z,100274.22
2018-08-17T03:25:43.290Z,100276.27
2018-08-17T03:28:14.037Z,100274.29
2018-08-17T03:30:44.861Z,100270.66
2018-08-17T03:33:15.872Z,100277.95
2018-08-17T03:35:46.814Z,100276.22
2018-08-17T03:38:17.781Z,100273.36
2018-08-17T03:40:49.050Z,100276.09
2018-08-17T03:43:19.897Z,100284.58
2018-08-17T03:45:50.703Z,100279.61
2018-08-17T03:48:22.160Z,100280.50
2018-08-17T03:50:52.956Z,100276.80
2018-08-17T03:53:23.865Z,100285.47
2018-08-17T03:55:54.684Z,100286.95
2018-08-17T03:58:26.160Z,100282.41
2018-08-17T04:00:57.144Z,100280.26
2018-08-17T04:03:27.992Z,100286.17
2018-08-17T04:05:58.849Z,100283.29
2018-08-17T04:08:29.844Z,100288.91
2018-08-17T04:11:01.088Z,100285.53
2018-08-17T04:13:32.038Z,100285.53
2018-08-17T04:16:02.881Z,100286.17
2018-08-17T04:18:34.159Z,100285.53
2018-08-17T04:21:04.986Z,100288.71
2018-08-17T04:23:35.995Z,100284.52
2018-08-17T04:26:06.906Z,100285.97
2018-08-17T04:28:37.820Z,100289.98
2018-08-17T04:31:08.745Z,100291.15
2018-08-17T04:33:40.141Z,100286.11
2018-08-17T04:36:11.006Z,100284.13
2018-08-17T04:38:41.917Z,100293.77
2018-08-17T04:41:12.863Z,100289.75
2018-08-17T04:43:43.847Z,100291.72
2018-08-17T04:46:15.625Z,100295.56
2018-08-17T04:48:46.251Z,100295.04
2018-08-17T04:51:17.048Z,100288.66
2018-08-17T04:53:47.960Z,100290.46
2018-08-17T04:56:18.777Z,100295.44
2018-08-17T04:58:49.769Z,100293.18
2018-08-17T05:01:21.225Z,100288.46
2018-08-17T05:03:52.198Z,100283.17
2018-08-17T05:06:22.921Z,100287.19
2018-08-17T05:08:53.839Z,100285.84
2018-08-17T05:11:24.811Z,100288.98
2018-08-17T05:13:56.088Z,100285.60
2018-08-17T05:16:27.131Z,100291.21
2018-08-17T05:18:57.945Z,100293.23
2018-08-17T05:21:28.750Z,100295.48
2018-08-17T05:24:00.109Z,100298.34
2018-08-17T05:26:30.850Z,100294.48
2018-08-17T05:29:01.821Z,100297.41
2018-08-17T05:31:33.057Z,100294.08
2018-08-17T05:34:04.103Z,100291.42
2018-08-17T05:36:35.054Z,100295.72
2018-08-17T05:39:06.998Z,100292.35
2018-08-17T05:41:36.756Z,100288.72
2018-08-17T05:44:08.181Z,100288.00
2018-08-17T05:46:39.122Z,100293.42
2018-08-17T05:49:10.165Z,100295.22
2018-08-17T05:51:40.930Z,100301.08
2018-08-17T05:54:11.824Z,100300.59
2018-08-17T05:56:43.119Z,100295.67
2018-08-17T05:59:14.012Z,100286.00
2018-08-17T06:01:51.396Z,100294.41
2018-08-17T06:04:21.961Z,100291.00
2018-08-17T06:06:51.736Z,100293.41
2018-08-17T06:09:21.541Z,100292.18
2018-08-17T06:11:51.526Z,100290.57
2018-08-17T06:14:21.389Z,100289.03
2018-08-17T06:16:51.406Z,100288.84
2018-08-17T06:19:22.632Z,100285.62
2018-08-17T06:21:53.217Z,100290.81
2018-08-17T06:24:24.010Z,100284.30
2018-08-17T06:26:54.925Z,100280.97
2018-08-17T06:29:25.849Z,100282.48
2018-08-17T06:31:57.454Z,100281.14
2018-08-17T06:34:27.999Z,100281.22
2018-08-17T06:36:59.041Z,100279.25
2018-08-17T06:39:29.863Z,100275.17
2018-08-17T06:42:01.181Z,100269.73
2018-08-17T06:44:31.974Z,100272.61
2018-08-17T06:47:02.918Z,100269.95
2018-08-17T06:49:34.053Z,100271.23
2018-08-17T06:52:05.364Z,100269.97
2018-08-17T06:54:35.897Z,100271.41
2018-08-17T06:57:07.026Z,100274.64
2018-08-17T06:59:37.827Z,100259.55
2018-08-17T07:02:08.992Z,100267.87
2018-08-17T07:04:39.921Z,100268.70
2018-08-17T07:07:10.810Z,100271.13
2018-08-17T07:09:42.046Z,100266.19
2018-08-17T07:12:13.093Z,100271.05
2018-08-17T07:14:43.848Z,100268.77
2018-08-17T07:17:14.938Z,100263.98
2018-08-17T07:19:45.713Z,100257.83
2018-08-17T07:22:17.209Z,100266.17
2018-08-17T07:24:48.000Z,100264.28
2018-08-17T07:27:19.034Z,100265.18
2018-08-17T07:29:49.938Z,100262.65
2018-08-17T07:32:20.875Z,100270.23
2018-08-17T07:34:51.832Z,100260.81
2018-08-17T07:37:21.769Z,100262.90
2018-08-17T07:39:53.029Z,100260.55
2018-08-17T07:42:24.235Z,100260.41
2018-08-17T07:44:55.111Z,100257.48
2018-08-17T07:47:26.075Z,100258.17
2018-08-17T07:49:57.009Z,100262.23
2018-08-17T07:52:27.987Z,100263.96
2018-08-17T07:54:58.873Z,100262.70
2018-08-17T07:57:29.826Z,100268.68
2018-08-17T08:00:01.066Z,100269.75
2018-08-17T08:02:32.153Z,100267.34
2018-08-17T08:05:03.081Z,100266.55
2018-08-17T08:07:34.022Z,100264.35
2018-08-17T08:10:05.040Z,100262.41
2018-08-17T08:12:36.050Z,100264.14
2018-08-17T08:15:07.539Z,100275.20
2018-08-17T08:17:40.796Z,100260.95
2018-08-17T08:20:21.224Z,100269.59
2018-08-17T08:23:28.872Z,100265.23
2018-08-17T08:25:59.453Z,100257.84
2018-08-17T08:28:29.797Z,100267.11
2018-08-17T08:30:59.761Z,100267.00
2018-08-17T08:33:29.528Z,100267.63
2018-08-17T08:35:59.466Z,100266.15
2018-08-17T08:38:29.453Z,100264.16
2018-08-17T08:40:59.238Z,100264.52
2018-08-17T08:43:29.017Z,100272.58
2018-08-17T08:45:59.109Z,100264.52
2018-08-17T08:48:29.151Z,100270.39
2018-08-17T08:50:59.194Z,100269.39
2018-08-17T08:53:28.991Z,100263.05
2018-08-17T08:55:59.213Z,100270.97
2018-08-17T08:58:30.086Z,100263.89
2018-08-17T09:01:01.101Z,100265.39
2018-08-17T09:03:30.966Z,100272.77
2018-08-17T09:06:00.978Z,100268.79
2018-08-17T09:08:31.041Z,100269.72
2018-08-17T09:11:01.036Z,100258.55
2018-08-17T09:13:31.007Z,100257.19
2018-08-17T09:16:01.044Z,100265.01
2018-08-17T09:18:31.248Z,100267.10
2018-08-17T09:21:01.264Z,100259.45
2018-08-17T09:23:31.124Z,100261.33
2018-08-17T09:26:01.076Z,100254.72
2018-08-17T09:28:31.122Z,100253.92
2018-08-17T09:31:01.068Z,100248.47
2018-08-17T09:33:31.354Z,100246.59
2018-08-17T09:36:01.196Z,100240.83
2018-08-17T09:38:31.479Z,100247.63
2018-08-17T09:41:01.300Z,100240.27
2018-08-17T09:43:31.081Z,100238.98
2018-08-17T09:46:01.024Z,100238.17
2018-08-17T09:48:31.103Z,100241.31
2018-08-17T09:51:01.622Z,100240.91
2018-08-17T09:53:31.452Z,100238.17
2018-08-17T09:56:01.837Z,100237.68
2018-08-17T09:58:31.989Z,100231.52
2018-08-17T10:01:07.000Z,100230.22
2018-08-17T10:03:42.231Z,100218.34
2018-08-17T10:06:17.281Z,100224.02
2018-08-17T10:08:52.076Z,100213.72
2018-08-17T10:11:22.021Z,100219.20
2018-08-17T10:13:52.005Z,100218.14
2018-08-17T10:16:22.229Z,100205.62
2018-08-17T10:18:52.517Z,100209.70
2018-08-17T10:21:22.456Z,100214.84
2018-08-17T10:23:52.325Z,100213.50
2018-08-17T10:26:22.282Z,100206.37
2018-08-17T10:28:52.105Z,100205.02
2018-08-17T10:31:22.385Z,100211.30
2018-08-17T10:33:52.634Z,100206.55
2018-08-17T10:36:22.479Z,100201.58
2018-08-17T10:38:52.317Z,100214.55
2018-08-17T10:41:22.364Z,100209.11
2018-08-17T10:43:52.811Z,100214.59
2018-08-17T10:46:22.912Z,100207.73
2018-08-17T10:48:53.384Z,100210.23
2018-08-17T10:51:23.805Z,100209.31
2018-08-17T10:53:53.813Z,100197.28
2018-08-17T10:56:23.966Z,100199.13
2018-08-17T10:58:53.845Z,100199.80
2018-08-17T11:01:23.798Z,100195.56
2018-08-17T11:03:53.777Z,100191.19
2018-08-17T11:06:23.696Z,100186.31
2018-08-17T11:08:53.559Z,100183.42
2018-08-17T11:11:23.326Z,100185.21
2018-08-17T11:13:54.197Z,100186.13
2018-08-17T11:16:24.117Z,100192.13
2018-08-17T11:18:54.593Z,100191.64
2018-08-17T11:21:24.927Z,100186.53
2018-08-17T11:24:02.870Z,100191.39
2018-08-17T11:26:39.192Z,100186.66
2018-08-17T11:29:09.466Z,100183.36
2018-08-17T11:31:39.650Z,100176.00
2018-08-17T11:34:10.249Z,100174.59
2018-08-17T11:36:40.036Z,100176.14
2018-08-17T11:39:10.362Z,100175.23
2018-08-17T11:41:40.641Z,100179.84
2018-08-17T11:44:14.360Z,100174.72
2018-08-17T11:46:44.647Z,100173.77
2018-08-17T11:49:14.746Z,100170.25
2018-08-17T11:51:45.021Z,100169.73
2018-08-17T11:54:14.925Z,100170.77
2018-08-17T11:56:45.447Z,100165.36
2018-08-17T11:59:15.467Z,100160.27
2018-08-17T12:01:45.485Z,100155.16
2018-08-17T12:04:15.455Z,100150.16
2018-08-17T12:06:45.529Z,100155.05
2018-08-17T12:09:15.389Z,100155.74
2018-08-17T12:11:45.323Z,100153.83
2018-08-17T12:14:15.323Z,100149.76
2018-08-17T12:16:45.981Z,100155.60
2018-08-17T12:19:16.371Z,100141.27
2018-08-17T12:21:46.290Z,100146.11
2018-08-17T12:24:16.355Z,100144.39
2018-08-17T12:26:51.450Z,100146.59
2018-08-17T12:29:21.404Z,100142.31
2018-08-17T12:31:51.370Z,100137.98
2018-08-17T12:34:21.320Z,100137.48
2018-08-17T12:36:51.275Z,100135.63
2018-08-17T12:39:21.902Z,100122.72
2018-08-17T12:41:51.739Z,100129.92
2018-08-17T12:44:22.158Z,100129.38
2018-08-17T12:46:52.991Z,100120.86
2018-08-17T12:49:23.781Z,100121.34
2018-08-17T12:51:54.893Z,100116.80
2018-08-17T12:54:30.493Z,100116.27
2018-08-17T12:57:02.149Z,100124.94
2018-08-17T12:59:32.522Z,100118.11
2018-08-17T13:02:02.922Z,100118.67
2018-08-17T13:04:32.943Z,100122.59
2018-08-17T13:07:02.781Z,100122.23
2018-08-17T13:09:32.613Z,100123.33
2018-08-17T13:12:03.047Z,100113.21
2018-08-17T13:14:33.031Z,100114.83
2018-08-17T13:17:03.828Z,100103.19
2018-08-17T13:19:34.934Z,100103.70
2018-08-17T13:22:05.902Z,100104.41
2018-08-17T13:24:37.053Z,100096.48
2018-08-17T13:27:07.859Z,100100.87
2018-08-17T13:29:38.998Z,100097.80
2018-08-17T13:32:09.677Z,100096.02
2018-08-17T13:34:39.719Z,100099.24
2018-08-17T13:37:10.745Z,100100.04
2018-08-17T13:39:42.420Z,100097.55
2018-08-17T13:42:13.251Z,100095.03
2018-08-17T13:44:44.147Z,100097.09
2018-08-17T13:47:14.988Z,100095.55
2018-08-17T13:49:46.085Z,100093.45
2018-08-17T13:52:16.968Z,100084.55
2018-08-17T13:54:48.399Z,100088.92
2018-08-17T13:57:18.952Z,100084.80
2018-08-17T13:59:50.161Z,100073.67
2018-08-17T14:02:21.426Z,100066.03
2018-08-17T14:04:52.198Z,100071.89
2018-08-17T14:07:23.113Z,100070.94
2018-08-17T14:09:54.288Z,100072.39
2018-08-17T14:12:25.123Z,100075.23
2018-08-17T14:14:56.150Z,100073.14
2018-08-17T14:17:27.143Z,100072.84
2018-08-17T14:19:58.078Z,100067.47
2018-08-17T14:22:28.880Z,100072.23
2018-08-17T14:24:59.896Z,100065.42
2018-08-17T14:27:30.783Z,100063.61
2018-08-17T14:30:01.877Z,100063.45
2018-08-17T14:32:32.846Z,100064.52
2018-08-17T14:35:03.848Z,100062.61
2018-08-17T14:37:34.875Z,100067.04
2018-08-17T14:40:06.522Z,100062.77
2018-08-17T14:42:37.160Z,100057.08
2018-08-17T14:45:09.210Z,100062.52
2018-08-17T14:47:39.878Z,100059.91
2018-08-17T14:50:13.585Z,100066.73
2018-08-17T14:52:44.110Z,100068.05
2018-08-17T14:55:14.076Z,100069.35
2018-08-17T14:57:43.982Z,100067.25
2018-08-17T15:00:15.279Z,100068.61
2018-08-17T15:02:45.377Z,100067.33
2018-08-17T15:05:16.689Z,100064.10
2018-08-17T15:07:46.753Z,100065.64
2018-08-17T15:10:17.686Z,100060.17
2018-08-17T15:12:49.261Z,100060.67
2018-08-17T15:15:21.762Z,100062.14
2018-08-17T15:17:51.614Z,100055.14
2018-08-17T15:20:21.976Z,100056.86
2018-08-17T15:22:52.769Z,100057.42
2018-08-17T15:25:24.137Z,100049.38
2018-08-17T15:27:54.977Z,100049.81
2018-08-17T15:30:25.689Z,100051.22
2018-08-17T15:32:57.206Z,100051.70
2018-08-17T15:35:27.947Z,100052.51
2018-08-17T15:37:58.765Z,100046.36
2018-08-17T15:40:29.932Z,100040.25
2018-08-17T15:43:04.706Z,100040.59
2018-08-17T15:45:34.417Z,100043.10
2018-08-17T15:48:04.709Z,100037.48
2018-08-17T15:50:34.545Z,100039.28
2018-08-17T15:53:05.082Z,100035.72
2018-08-17T15:55:35.926Z,100040.71
2018-08-17T15:58:07.423Z,100031.06
2018-08-17T16:00:38.561Z,100036.69
2018-08-17T16:03:09.175Z,100032.55
2018-08-17T16:05:40.435Z,100034.67
2018-08-17T16:08:10.896Z,100032.80
2018-08-17T16:10:41.882Z,100029.60
2018-08-17T16:13:12.850Z,100029.84
2018-08-17T16:15:43.796Z,100028.92
2018-08-17T16:18:14.882Z,100028.04
2018-08-17T16:20:45.835Z,100029.34
2018-08-17T16:23:16.633Z,100027.96
2018-08-17T16:25:48.321Z,100026.03
2018-08-17T16:28:18.906Z,100028.46
2018-08-17T16:30:49.834Z,100026.41
2018-08-17T16:33:20.790Z,100024.91
2018-08-17T16:35:51.961Z,100029.20
2018-08-17T16:38:22.749Z,100033.59
2018-08-17T16:40:54.409Z,100030.23
2018-08-17T16:43:30.999Z,100032.91
2018-08-17T16:46:01.427Z,100028.14
2018-08-17T16:48:31.314Z,100023.00
2018-08-17T16:51:01.663Z,100025.25
2018-08-17T16:53:31.507Z,100028.25
2018-08-17T16:56:05.548Z,100025.41
2018-08-17T16:58:35.848Z,100027.41
2018-08-17T17:01:05.738Z,100035.58
2018-08-17T17:03:35.629Z,100031.88
2018-08-17T17:06:06.271Z,100036.52
2018-08-17T17:08:36.752Z,100035.81
2018-08-17T17:11:06.718Z,100031.59
2018-08-17T17:13:41.855Z,100035.14
2018-08-17T17:16:12.040Z,100033.34
2018-08-17T17:18:41.883Z,100031.91
2018-08-17T17:21:11.749Z,100034.77
2018-08-17T17:23:52.385Z,100035.98
2018-08-17T17:26:22.612Z,100035.58
2018-08-17T17:28:52.454Z,100033.31
2018-08-17T17:31:22.267Z,100030.25
2018-08-17T17:33:52.919Z,100034.00
2018-08-17T17:36:22.678Z,100034.80
2018-08-17T17:38:52.477Z,100028.41
2018-08-17T17:41:22.790Z,100029.11
2018-08-17T17:43:52.573Z,100037.23
2018-08-17T17:46:22.928Z,100039.84
2018-08-17T17:48:52.766Z,100036.13
2018-08-17T17:51:22.660Z,100042.25
2018-08-17T17:53:52.882Z,100040.43
2018-08-17T17:56:24.015Z,100039.70
2018-08-17T17:59:03.120Z,100042.61
2018-08-17T18:01:33.217Z,100046.59
2018-08-17T18:04:03.503Z,100048.34
2018-08-17T18:06:33.626Z,100041.89
2018-08-17T18:09:03.768Z,100049.92
2018-08-17T18:11:33.656Z,100053.30
2018-08-17T18:14:03.524Z,100051.73
2018-08-17T18:16:33.950Z,100055.61
2018-08-17T18:19:04.013Z,100064.16
2018-08-17T18:21:34.685Z,100063.69
2018-08-17T18:24:09.374Z,100073.28
2018-08-17T18:26:41.929Z,100067.34
2018-08-17T18:29:11.835Z,100066.56
2018-08-17T18:31:41.803Z,100079.14
2018-08-17T18:34:11.933Z,100081.34
2018-08-17T18:36:42.065Z,100083.55
2018-08-17T18:39:14.111Z,100085.16
2018-08-17T18:41:44.404Z,100087.35
2018-08-17T18:44:14.688Z,100089.00
2018-08-17T18:46:44.677Z,100084.06
2018-08-17T18:49:14.694Z,100094.40
2018-08-17T18:51:44.836Z,100088.93
2018-08-17T18:54:15.920Z,100092.73
2018-08-17T18:56:46.847Z,100088.64
2018-08-17T18:59:17.783Z,100088.33
2018-08-17T19:01:49.310Z,100092.34
2018-08-17T19:04:20.273Z,100091.77
2018-08-17T19:06:51.156Z,100093.65
2018-08-17T19:09:21.985Z,100090.05
2018-08-17T19:11:52.880Z,100088.66
2018-08-17T19:14:23.886Z,100090.25
2018-08-17T19:16:55.142Z,100093.52
2018-08-17T19:19:25.997Z,100095.06
2018-08-17T19:21:57.608Z,100091.76
2018-08-17T19:24:28.367Z,100099.61
2018-08-17T19:26:59.115Z,100102.34
2018-08-17T19:29:30.455Z,100098.25
2018-08-17T19:32:03.068Z,100099.06
2018-08-17T19:34:33.204Z,100104.47
2018-08-17T19:37:03.220Z,100107.72
2018-08-17T19:39:35.086Z,100106.60
2018-08-17T19:42:05.468Z,100107.65
2018-08-17T19:44:35.529Z,100109.25
2018-08-17T19:47:06.332Z,100104.86
2018-08-17T19:49:37.413Z,100111.34
2018-08-17T19:52:08.791Z,100103.94
2018-08-17T19:54:39.728Z,100105.19
2018-08-17T19:57:09.616Z,100108.15
2018-08-17T19:59:41.301Z,100109.74
2018-08-17T20:02:12.025Z,100112.18
2018-08-17T20:04:42.875Z,100103.42
2018-08-17T20:07:13.944Z,100103.94
2018-08-17T20:09:45.062Z,100102.30
2018-08-17T20:12:16.284Z,100109.05
2018-08-17T20:14:47.186Z,100115.52
2018-08-17T20:17:18.054Z,100120.34
2018-08-17T20:19:50.041Z,100122.17
2018-08-17T20:22:22.872Z,100120.48
2018-08-17T20:24:53.048Z,100118.19
2018-08-17T20:27:23.368Z,100122.48
2018-08-17T20:29:53.262Z,100119.95
2018-08-17T20:32:24.042Z,100129.40
2018-08-17T20:34:55.135Z,100122.81
2018-08-17T20:37:25.982Z,100129.78
2018-08-17T20:39:57.019Z,100133.52
2018-08-17T20:42:28.403Z,100140.24
2018-08-17T20:44:59.033Z,100140.97
2018-08-17T20:47:30.042Z,100131.61
2018-08-17T20:50:00.978Z,100138.64
2018-08-17T20:52:31.839Z,100137.49
2018-08-17T20:55:03.707Z,100140.66
2018-08-17T20:57:33.950Z,100141.66
2018-08-17T21:00:05.494Z,100146.47
2018-08-17T21:02:36.069Z,100152.11
2018-08-17T21:05:07.539Z,100151.52
2018-08-17T21:07:38.100Z,100156.60
2018-08-17T21:10:09.437Z,100155.72
2018-08-17T21:12:40.256Z,100156.71
2018-08-17T21:15:10.988Z,100164.48
2018-08-17T21:17:41.916Z,100168.19
2018-08-17T21:20:13.036Z,100163.75
2018-08-17T21:22:43.955Z,100164.15
2018-08-17T21:25:14.931Z,100162.42
2018-08-17T21:27:45.982Z,100168.02
2018-08-17T21:30:17.128Z,100166.61
2018-08-17T21:32:48.080Z,100163.58
2018-08-17T21:35:19.174Z,100171.91
2018-08-17T21:37:50.604Z,100172.05
2018-08-17T21:40:30.391Z,100178.48
2018-08-17T21:43:02.487Z,100177.32
2018-08-17T21:45:33.238Z,100182.71
2018-08-17T21:48:03.597Z,100184.20
2018-08-17T21:50:33.605Z,100173.55
2018-08-17T21:53:03.513Z,100180.59
2018-08-17T21:55:33.621Z,100186.72
2018-08-17T21:58:04.108Z,100181.46
2018-08-17T22:00:34.652Z,100177.78
2018-08-17T22:03:11.319Z,100180.65
2018-08-17T22:05:41.882Z,100180.55
2018-08-17T22:08:11.946Z,100177.19
2018-08-17T22:10:41.796Z,100175.44
2018-08-17T22:13:21.697Z,100188.76
2018-08-17T22:15:52.204Z,100186.75
2018-08-17T22:18:22.240Z,100191.77
2018-08-17T22:20:53.276Z,100187.89
2018-08-17T22:23:23.514Z,100189.73
2018-08-17T22:25:53.858Z,100183.63
2018-08-17T22:28:23.777Z,100184.92
2018-08-17T22:30:53.996Z,100184.62
2018-08-17T22:33:24.329Z,100187.64
2018-08-17T22:35:54.545Z,100185.87
2018-08-17T22:38:27.735Z,100192.84
2018-08-17T22:40:58.096Z,100185.44
2018-08-17T22:43:42.374Z,100196.52
2018-08-17T22:46:12.189Z,100191.81
2018-08-17T22:48:42.025Z,100194.02
2018-08-17T22:51:12.119Z,100199.70
2018-08-17T22:53:41.999Z,100205.17
2018-08-17T22:56:12.097Z,100202.94
2018-08-17T22:58:51.457Z,100199.19
2018-08-17T23:01:21.761Z,100198.80
2018-08-17T23:03:55.488Z,100196.94
2018-08-17T23:06:26.868Z,100201.59
2018-08-17T23:09:00.039Z,100201.20
2018-08-17T23:11:36.519Z,100199.39
2018-08-17T23:14:21.333Z,100205.69
2018-08-17T23:16:51.496Z,100207.83
2018-08-17T23:19:21.309Z,100207.53
2018-08-17T23:21:51.113Z,100208.72
2018-08-17T23:24:21.118Z,100209.00
2018-08-17T23:26:51.072Z,100214.23
2018-08-17T23:29:21.303Z,100211.98
2018-08-17T23:31:51.112Z,100212.63
2018-08-17T23:34:21.069Z,100206.91
2018-08-17T23:36:51.198Z,100215.44
2018-08-17T23:39:21.507Z,100216.37
2018-08-17T23:41:51.496Z,100221.91
2018-08-17T23:44:21.306Z,100217.09
2018-08-17T23:46:51.255Z,100221.56
2018-08-17T23:49:21.267Z,100227.48
2018-08-17T23:51:51.091Z,100230.73
2018-08-17T23:54:21.081Z,100236.97
2018-08-17T23:56:51.481Z,100234.78
2018-08-17T23:59:21.320Z,100224.84
